sensor_id;sensor_type;location;lat;lon;timestamp;pressure;altitude;pressure_sealevel;temperature;humidity
72226;BME280;60130;52.250;5.048;2023-07-13T00:00:00;1013.8;;;17.8;80.0
72226;BME280;60130;52.250;5.048;2023-07-13T00:05:00;1013.9;;;17.6;80.6
72226;BME280;60130;52.250;5.048;2023-07-13T00:10:00;1013.8;;;17.5;81.3
72226;BME280;60130;52.250;5.048;2023-07-13T00:15:02;1013.9;;;17.6;81.1
72226;BME280;60130;52.250;5.048;2023-07-13T00:20:00;1013.8;;;17.5;81.5
72226;BME280;60130;52.250;5.048;2023-07-13T00:25:00;1013.8;;;17.4;81.6
72226;BME280;60130;52.250;5.048;2023-07-13T00:30:00;1013.8;;;17.4;81.7
72226;BME280;60130;52.250;5.048;2023-07-13T00:35:00;1013.8;;;17.3;82.1
72226;BME280;60130;52.250;5.048;2023-07-13T00:40:02;1013.9;;;17.3;82.0
72226;BME280;60130;52.250;5.048;2023-07-13T00:45:02;1013.9;;;17.4;82.1
72226;BME280;60130;52.250;5.048;2023-07-13T00:50:01;1013.9;;;17.4;82.1
72226;BME280;60130;52.250;5.048;2023-07-13T00:55:09;1013.8;;;17.4;82.2
72226;BME280;60130;52.250;5.048;2023-07-13T01:00:03;1013.8;;;17.4;82.4
72226;BME280;60130;52.250;5.048;2023-07-13T01:05:00;1013.9;;;17.3;82.4
72226;BME280;60130;52.250;5.048;2023-07-13T01:10:00;1013.9;;;17.4;82.5
72226;BME280;60130;52.250;5.048;2023-07-13T01:15:01;1013.9;;;17.3;83.0
72226;BME280;60130;52.250;5.048;2023-07-13T01:20:00;1013.9;;;17.5;82.8
72226;BME280;60130;52.250;5.048;2023-07-13T01:25:00;1013.9;;;17.6;82.6
72226;BME280;60130;52.250;5.048;2023-07-13T01:30:00;1014.0;;;17.6;82.6
72226;BME280;60130;52.250;5.048;2023-07-13T01:35:00;1013.9;;;17.5;82.9
72226;BME280;60130;52.250;5.048;2023-07-13T01:40:00;1014.0;;;17.5;82.7
72226;BME280;60130;52.250;5.048;2023-07-13T01:45:00;1014.1;;;17.4;83.1
72226;BME280;60130;52.250;5.048;2023-07-13T01:50:06;1014.1;;;17.3;83.3
72226;BME280;60130;52.250;5.048;2023-07-13T01:55:01;1014.1;;;17.3;83.3
72226;BME280;60130;52.250;5.048;2023-07-13T02:00:03;1014.1;;;17.2;83.1
72226;BME280;60130;52.250;5.048;2023-07-13T02:05:00;1014.1;;;17.2;82.9
72226;BME280;60130;52.250;5.048;2023-07-13T02:10:01;1014.1;;;17.1;82.6
72226;BME280;60130;52.250;5.048;2023-07-13T02:15:00;1014.2;;;17.1;82.5
72226;BME280;60130;52.250;5.048;2023-07-13T02:20:00;1014.2;;;17.0;82.5
72226;BME280;60130;52.250;5.048;2023-07-13T02:25:00;1014.2;;;17.0;82.5
72226;BME280;60130;52.250;5.048;2023-07-13T02:30:00;1014.2;;;17.0;82.8
72226;BME280;60130;52.250;5.048;2023-07-13T02:35:00;1014.2;;;16.9;82.8
72226;BME280;60130;52.250;5.048;2023-07-13T02:40:00;1014.2;;;16.8;82.9
72226;BME280;60130;52.250;5.048;2023-07-13T02:45:00;1014.3;;;16.7;83.1
72226;BME280;60130;52.250;5.048;2023-07-13T02:50:00;1014.3;;;16.7;83.0
72226;BME280;60130;52.250;5.048;2023-07-13T02:55:00;1014.3;;;16.7;83.4
72226;BME280;60130;52.250;5.048;2023-07-13T03:00:00;1014.3;;;16.7;82.9
72226;BME280;60130;52.250;5.048;2023-07-13T03:05:01;1014.2;;;16.6;83.3
72226;BME280;60130;52.250;5.048;2023-07-13T03:10:00;1014.3;;;16.7;83.0
72226;BME280;60130;52.250;5.048;2023-07-13T03:15:00;1014.3;;;16.6;82.7
72226;BME280;60130;52.250;5.048;2023-07-13T03:20:00;1014.3;;;16.5;82.7
72226;BME280;60130;52.250;5.048;2023-07-13T03:25:00;1014.3;;;16.5;82.4
72226;BME280;60130;52.250;5.048;2023-07-13T03:30:00;1014.3;;;16.5;81.8
72226;BME280;60130;52.250;5.048;2023-07-13T03:35:00;1014.3;;;16.5;81.4
72226;BME280;60130;52.250;5.048;2023-07-13T03:40:00;1014.4;;;16.5;81.0
72226;BME280;60130;52.250;5.048;2023-07-13T03:45:00;1014.4;;;16.5;81.3
72226;BME280;60130;52.250;5.048;2023-07-13T03:50:01;1014.4;;;16.6;81.0
72226;BME280;60130;52.250;5.048;2023-07-13T03:55:00;1014.5;;;16.6;81.3
72226;BME280;60130;52.250;5.048;2023-07-13T04:00:00;1014.5;;;16.6;81.3
72226;BME280;60130;52.250;5.048;2023-07-13T04:05:00;1014.5;;;16.6;81.3
72226;BME280;60130;52.250;5.048;2023-07-13T04:10:00;1014.5;;;16.6;81.3
72226;BME280;60130;52.250;5.048;2023-07-13T04:15:00;1014.6;;;16.6;81.3
72226;BME280;60130;52.250;5.048;2023-07-13T04:20:00;1014.6;;;16.6;81.9
72226;BME280;60130;52.250;5.048;2023-07-13T04:25:00;1014.6;;;16.7;81.8
72226;BME280;60130;52.250;5.048;2023-07-13T04:30:00;1014.7;;;16.7;82.1
72226;BME280;60130;52.250;5.048;2023-07-13T04:35:00;1014.7;;;16.8;82.3
72226;BME280;60130;52.250;5.048;2023-07-13T04:40:00;1014.7;;;16.9;82.7
72226;BME280;60130;52.250;5.048;2023-07-13T04:45:00;1014.8;;;17.0;82.6
72226;BME280;60130;52.250;5.048;2023-07-13T04:50:00;1014.8;;;17.1;82.6
72226;BME280;60130;52.250;5.048;2023-07-13T04:55:00;1014.8;;;17.2;82.7
72226;BME280;60130;52.250;5.048;2023-07-13T05:00:04;1014.9;;;17.3;82.8
72226;BME280;60130;52.250;5.048;2023-07-13T05:05:01;1014.9;;;17.5;82.6
72226;BME280;60130;52.250;5.048;2023-07-13T05:10:00;1015.0;;;17.6;82.3
72226;BME280;60130;52.250;5.048;2023-07-13T05:15:01;1015.0;;;17.6;82.4
72226;BME280;60130;52.250;5.048;2023-07-13T05:20:00;1015.0;;;17.6;82.6
72226;BME280;60130;52.250;5.048;2023-07-13T05:25:00;1015.0;;;17.8;82.3
72226;BME280;60130;52.250;5.048;2023-07-13T05:30:00;1015.1;;;17.8;82.3
72226;BME280;60130;52.250;5.048;2023-07-13T05:35:00;1015.2;;;17.9;82.3
72226;BME280;60130;52.250;5.048;2023-07-13T05:40:00;1015.2;;;18.1;82.0
72226;BME280;60130;52.250;5.048;2023-07-13T05:45:00;1015.2;;;18.2;81.8
72226;BME280;60130;52.250;5.048;2023-07-13T05:50:00;1015.2;;;18.4;81.3
72226;BME280;60130;52.250;5.048;2023-07-13T05:55:00;1015.3;;;18.5;81.4
72226;BME280;60130;52.250;5.048;2023-07-13T06:00:00;1015.3;;;18.7;81.3
72226;BME280;60130;52.250;5.048;2023-07-13T06:05:00;1015.3;;;19.3;79.5
72226;BME280;60130;52.250;5.048;2023-07-13T06:10:00;1015.3;;;20.2;76.5
72226;BME280;60130;52.250;5.048;2023-07-13T06:15:00;1015.4;;;19.8;76.4
72226;BME280;60130;52.250;5.048;2023-07-13T06:20:00;1015.5;;;20.1;76.5
72226;BME280;60130;52.250;5.048;2023-07-13T06:25:01;1015.5;;;22.1;71.2
72226;BME280;60130;52.250;5.048;2023-07-13T06:30:00;1015.6;;;22.8;67.5
72226;BME280;60130;52.250;5.048;2023-07-13T06:35:05;1015.5;;;22.9;67.5
72226;BME280;60130;52.250;5.048;2023-07-13T06:40:00;1015.5;;;24.1;63.5
72226;BME280;60130;52.250;5.048;2023-07-13T06:45:00;1015.6;;;24.2;62.6
72226;BME280;60130;52.250;5.048;2023-07-13T06:50:00;1015.6;;;22.1;67.3
72226;BME280;60130;52.250;5.048;2023-07-13T06:55:00;1015.6;;;20.4;72.9
72226;BME280;60130;52.250;5.048;2023-07-13T07:00:01;1015.7;;;19.8;71.8
72226;BME280;60130;52.250;5.048;2023-07-13T07:05:00;1015.7;;;19.3;74.6
72226;BME280;60130;52.250;5.048;2023-07-13T07:10:00;1015.9;;;19.1;76.1
72226;BME280;60130;52.250;5.048;2023-07-13T07:15:04;1016.0;;;19.2;76.1
72226;BME280;60130;52.250;5.048;2023-07-13T07:20:00;1016.0;;;20.8;71.8
72226;BME280;60130;52.250;5.048;2023-07-13T07:25:00;1016.1;;;21.8;67.9
72226;BME280;60130;52.250;5.048;2023-07-13T07:30:00;1016.0;;;22.2;64.3
72226;BME280;60130;52.250;5.048;2023-07-13T07:35:00;1016.0;;;22.0;63.3
72226;BME280;60130;52.250;5.048;2023-07-13T07:40:00;1016.2;;;21.0;65.2
72226;BME280;60130;52.250;5.048;2023-07-13T07:45:00;1016.0;;;19.9;68.7
72226;BME280;60130;52.250;5.048;2023-07-13T07:50:00;1016.0;;;19.6;70.9
72226;BME280;60130;52.250;5.048;2023-07-13T07:55:00;1016.0;;;21.7;66.1
72226;BME280;60130;52.250;5.048;2023-07-13T08:00:00;1016.0;;;23.2;63.6
72226;BME280;60130;52.250;5.048;2023-07-13T08:05:00;1016.0;;;22.9;61.9
72226;BME280;60130;52.250;5.048;2023-07-13T08:10:00;1015.9;;;22.9;59.7
72226;BME280;60130;52.250;5.048;2023-07-13T08:15:00;1015.9;;;21.8;62.7
72226;BME280;60130;52.250;5.048;2023-07-13T08:20:00;1016.0;;;21.0;65.2
72226;BME280;60130;52.250;5.048;2023-07-13T08:25:00;1016.1;;;22.0;64.3
72226;BME280;60130;52.250;5.048;2023-07-13T08:30:06;1016.1;;;22.0;64.8
72226;BME280;60130;52.250;5.048;2023-07-13T08:35:00;1016.1;;;21.4;65.7
72226;BME280;60130;52.250;5.048;2023-07-13T08:40:00;1016.1;;;21.5;61.4
72226;BME280;60130;52.250;5.048;2023-07-13T08:45:08;1016.2;;;21.9;65.4
72226;BME280;60130;52.250;5.048;2023-07-13T08:50:00;1016.1;;;22.1;59.3
72226;BME280;60130;52.250;5.048;2023-07-13T08:55:05;1016.1;;;22.2;58.0
72226;BME280;60130;52.250;5.048;2023-07-13T09:00:00;1016.1;;;21.5;60.3
72226;BME280;60130;52.250;5.048;2023-07-13T09:05:03;1016.1;;;21.0;62.0
72226;BME280;60130;52.250;5.048;2023-07-13T09:10:14;1016.2;;;22.0;61.1
72226;BME280;60130;52.250;5.048;2023-07-13T09:15:02;1016.3;;;21.0;62.6
72226;BME280;60130;52.250;5.048;2023-07-13T09:20:03;1016.2;;;20.2;64.8
72226;BME280;60130;52.250;5.048;2023-07-13T09:25:05;1016.3;;;21.2;63.7
72226;BME280;60130;52.250;5.048;2023-07-13T09:30:07;1016.3;;;21.6;60.5
72226;BME280;60130;52.250;5.048;2023-07-13T09:35:00;1016.3;;;22.2;58.2
72226;BME280;60130;52.250;5.048;2023-07-13T09:40:01;1016.3;;;21.5;58.3
72226;BME280;60130;52.250;5.048;2023-07-13T09:45:01;1016.3;;;22.3;60.6
72226;BME280;60130;52.250;5.048;2023-07-13T09:50:03;1016.4;;;22.2;56.8
72226;BME280;60130;52.250;5.048;2023-07-13T09:55:00;1016.5;;;22.3;58.0
72226;BME280;60130;52.250;5.048;2023-07-13T10:00:00;1016.5;;;22.8;57.6
72226;BME280;60130;52.250;5.048;2023-07-13T10:05:02;1016.5;;;22.2;58.0
72226;BME280;60130;52.250;5.048;2023-07-13T10:10:01;1016.7;;;21.8;59.1
72226;BME280;60130;52.250;5.048;2023-07-13T10:15:01;1016.6;;;22.9;58.0
72226;BME280;60130;52.250;5.048;2023-07-13T10:20:02;1016.7;;;22.2;59.3
72226;BME280;60130;52.250;5.048;2023-07-13T10:25:00;1016.7;;;21.9;58.5
72226;BME280;60130;52.250;5.048;2023-07-13T10:30:05;1016.7;;;22.2;59.5
72226;BME280;60130;52.250;5.048;2023-07-13T10:35:00;1016.8;;;22.0;59.7
72226;BME280;60130;52.250;5.048;2023-07-13T10:40:01;1016.7;;;22.1;59.9
72226;BME280;60130;52.250;5.048;2023-07-13T10:45:00;1016.8;;;22.8;58.3
72226;BME280;60130;52.250;5.048;2023-07-13T10:50:00;1016.9;;;23.1;56.0
72226;BME280;60130;52.250;5.048;2023-07-13T10:55:02;1017.0;;;23.0;55.7
72226;BME280;60130;52.250;5.048;2023-07-13T11:00:14;1017.0;;;22.8;55.4
72226;BME280;60130;52.250;5.048;2023-07-13T11:05:17;1017.0;;;21.8;60.0
72226;BME280;60130;52.250;5.048;2023-07-13T11:10:04;1017.1;;;22.2;58.4
72226;BME280;60130;52.250;5.048;2023-07-13T11:15:03;1017.1;;;22.8;56.5
72226;BME280;60130;52.250;5.048;2023-07-13T11:20:10;1017.1;;;22.3;54.8
72226;BME280;60130;52.250;5.048;2023-07-13T11:25:02;1017.1;;;22.5;57.1
72226;BME280;60130;52.250;5.048;2023-07-13T11:30:21;1017.2;;;22.9;56.2
72226;BME280;60130;52.250;5.048;2023-07-13T11:35:00;1017.0;;;22.9;54.8
72226;BME280;60130;52.250;5.048;2023-07-13T11:40:00;1017.2;;;22.8;55.1
72226;BME280;60130;52.250;5.048;2023-07-13T11:45:00;1017.2;;;22.8;55.9
72226;BME280;60130;52.250;5.048;2023-07-13T11:50:00;1017.2;;;22.9;56.1
72226;BME280;60130;52.250;5.048;2023-07-13T11:55:02;1017.2;;;22.8;55.7
72226;BME280;60130;52.250;5.048;2023-07-13T12:00:04;1017.2;;;23.1;55.3
72226;BME280;60130;52.250;5.048;2023-07-13T12:05:02;1017.2;;;23.4;54.6
72226;BME280;60130;52.250;5.048;2023-07-13T12:10:02;1017.2;;;23.6;54.1
72226;BME280;60130;52.250;5.048;2023-07-13T12:15:00;1017.2;;;23.4;54.1
72226;BME280;60130;52.250;5.048;2023-07-13T12:20:03;1017.2;;;23.5;52.8
72226;BME280;60130;52.250;5.048;2023-07-13T12:25:00;1017.2;;;23.4;54.5
72226;BME280;60130;52.250;5.048;2023-07-13T12:30:15;1017.2;;;23.3;54.6
72226;BME280;60130;52.250;5.048;2023-07-13T12:35:13;1017.3;;;23.4;54.2
72226;BME280;60130;52.250;5.048;2023-07-13T12:40:01;1017.3;;;23.4;53.6
72226;BME280;60130;52.250;5.048;2023-07-13T12:45:12;1017.2;;;23.2;54.6
72226;BME280;60130;52.250;5.048;2023-07-13T12:50:03;1017.2;;;23.5;55.4
72226;BME280;60130;52.250;5.048;2023-07-13T12:55:06;1017.3;;;22.7;54.9
72226;BME280;60130;52.250;5.048;2023-07-13T13:00:03;1017.3;;;23.3;56.9
72226;BME280;60130;52.250;5.048;2023-07-13T13:05:01;1017.3;;;23.4;56.0
72226;BME280;60130;52.250;5.048;2023-07-13T13:10:00;1017.4;;;23.8;54.4
72226;BME280;60130;52.250;5.048;2023-07-13T13:15:00;1017.5;;;23.4;56.1
72226;BME280;60130;52.250;5.048;2023-07-13T13:20:00;1017.4;;;23.6;56.1
72226;BME280;60130;52.250;5.048;2023-07-13T13:25:00;1017.5;;;23.6;53.5
72226;BME280;60130;52.250;5.048;2023-07-13T13:30:00;1017.5;;;22.8;57.3
72226;BME280;60130;52.250;5.048;2023-07-13T13:35:00;1017.5;;;23.6;54.7
72226;BME280;60130;52.250;5.048;2023-07-13T13:40:00;1017.6;;;23.7;54.4
72226;BME280;60130;52.250;5.048;2023-07-13T13:45:00;1017.6;;;23.6;53.7
72226;BME280;60130;52.250;5.048;2023-07-13T13:50:00;1017.6;;;23.5;53.8
72226;BME280;60130;52.250;5.048;2023-07-13T13:55:00;1017.6;;;23.4;53.9
72226;BME280;60130;52.250;5.048;2023-07-13T14:00:00;1017.6;;;23.3;55.0
72226;BME280;60130;52.250;5.048;2023-07-13T14:05:02;1017.6;;;23.1;54.5
72226;BME280;60130;52.250;5.048;2023-07-13T14:10:00;1017.6;;;23.3;54.6
72226;BME280;60130;52.250;5.048;2023-07-13T14:15:00;1017.6;;;23.3;53.9
72226;BME280;60130;52.250;5.048;2023-07-13T14:20:00;1017.6;;;23.2;53.2
72226;BME280;60130;52.250;5.048;2023-07-13T14:25:00;1017.7;;;23.4;53.9
72226;BME280;60130;52.250;5.048;2023-07-13T14:30:00;1017.6;;;23.3;53.8
72226;BME280;60130;52.250;5.048;2023-07-13T14:35:00;1017.6;;;23.5;53.0
72226;BME280;60130;52.250;5.048;2023-07-13T14:40:00;1017.7;;;23.6;52.5
72226;BME280;60130;52.250;5.048;2023-07-13T14:45:00;1017.7;;;23.3;51.7
72226;BME280;60130;52.250;5.048;2023-07-13T14:50:00;1017.7;;;23.2;52.0
72226;BME280;60130;52.250;5.048;2023-07-13T14:55:01;1017.7;;;23.3;52.4
72226;BME280;60130;52.250;5.048;2023-07-13T15:00:00;1017.7;;;23.1;53.3
72226;BME280;60130;52.250;5.048;2023-07-13T15:05:01;1017.6;;;23.0;54.8
72226;BME280;60130;52.250;5.048;2023-07-13T15:10:00;1017.7;;;23.3;54.0
72226;BME280;60130;52.250;5.048;2023-07-13T15:15:00;1017.7;;;23.3;53.3
72226;BME280;60130;52.250;5.048;2023-07-13T15:20:00;1017.7;;;23.5;54.3
72226;BME280;60130;52.250;5.048;2023-07-13T15:25:11;1017.7;;;23.3;52.5
72226;BME280;60130;52.250;5.048;2023-07-13T15:30:00;1017.7;;;23.3;52.5
72226;BME280;60130;52.250;5.048;2023-07-13T15:35:00;1017.7;;;23.1;52.1
72226;BME280;60130;52.250;5.048;2023-07-13T15:40:00;1017.8;;;22.8;53.6
72226;BME280;60130;52.250;5.048;2023-07-13T15:45:00;1017.7;;;22.9;53.1
72226;BME280;60130;52.250;5.048;2023-07-13T15:50:00;1017.8;;;23.2;53.9
72226;BME280;60130;52.250;5.048;2023-07-13T15:55:00;1017.7;;;23.0;55.4
72226;BME280;60130;52.250;5.048;2023-07-13T16:00:00;1017.7;;;23.2;54.2
72226;BME280;60130;52.250;5.048;2023-07-13T16:05:00;1017.7;;;23.1;53.6
72226;BME280;60130;52.250;5.048;2023-07-13T16:10:00;1017.7;;;22.9;55.1
72226;BME280;60130;52.250;5.048;2023-07-13T16:15:00;1017.7;;;23.0;55.2
72226;BME280;60130;52.250;5.048;2023-07-13T16:20:00;1017.7;;;22.8;55.8
72226;BME280;60130;52.250;5.048;2023-07-13T16:25:00;1017.7;;;22.9;54.7
72226;BME280;60130;52.250;5.048;2023-07-13T16:30:05;1017.7;;;23.1;55.0
72226;BME280;60130;52.250;5.048;2023-07-13T16:35:00;1017.8;;;23.3;55.3
72226;BME280;60130;52.250;5.048;2023-07-13T16:40:00;1017.7;;;23.4;55.2
72226;BME280;60130;52.250;5.048;2023-07-13T16:45:00;1017.8;;;23.2;55.5
72226;BME280;60130;52.250;5.048;2023-07-13T16:50:00;1017.8;;;23.3;55.5
72226;BME280;60130;52.250;5.048;2023-07-13T16:55:00;1017.7;;;22.9;55.2
72226;BME280;60130;52.250;5.048;2023-07-13T17:00:00;1017.7;;;23.0;55.1
72226;BME280;60130;52.250;5.048;2023-07-13T17:05:00;1017.8;;;22.9;55.7
72226;BME280;60130;52.250;5.048;2023-07-13T17:10:01;1017.8;;;23.0;54.8
72226;BME280;60130;52.250;5.048;2023-07-13T17:15:01;1017.8;;;23.4;54.4
72226;BME280;60130;52.250;5.048;2023-07-13T17:20:01;1017.8;;;23.2;55.2
72226;BME280;60130;52.250;5.048;2023-07-13T17:25:00;1017.8;;;23.3;56.3
72226;BME280;60130;52.250;5.048;2023-07-13T17:30:00;1017.7;;;23.3;55.2
72226;BME280;60130;52.250;5.048;2023-07-13T17:35:14;1017.7;;;23.5;55.0
72226;BME280;60130;52.250;5.048;2023-07-13T17:40:00;1017.8;;;23.4;55.4
72226;BME280;60130;52.250;5.048;2023-07-13T17:45:00;1017.8;;;23.4;55.2
72226;BME280;60130;52.250;5.048;2023-07-13T17:50:00;1017.8;;;23.6;54.8
72226;BME280;60130;52.250;5.048;2023-07-13T17:55:04;1017.8;;;23.2;56.1
72226;BME280;60130;52.250;5.048;2023-07-13T18:00:00;1017.8;;;23.3;56.2
72226;BME280;60130;52.250;5.048;2023-07-13T18:05:00;1017.8;;;22.4;56.8
72226;BME280;60130;52.250;5.048;2023-07-13T18:10:00;1017.9;;;22.4;58.1
72226;BME280;60130;52.250;5.048;2023-07-13T18:15:00;1017.8;;;22.2;56.9
72226;BME280;60130;52.250;5.048;2023-07-13T18:20:00;1017.8;;;21.4;59.1
72226;BME280;60130;52.250;5.048;2023-07-13T18:25:01;1017.8;;;21.2;60.6
72226;BME280;60130;52.250;5.048;2023-07-13T18:30:00;1017.8;;;20.9;60.8
72226;BME280;60130;52.250;5.048;2023-07-13T18:35:00;1017.8;;;20.8;60.6
72226;BME280;60130;52.250;5.048;2023-07-13T18:40:00;1017.9;;;21.0;60.0
72226;BME280;60130;52.250;5.048;2023-07-13T18:45:00;1017.9;;;21.2;59.7
72226;BME280;60130;52.250;5.048;2023-07-13T18:50:00;1017.9;;;21.7;59.2
72226;BME280;60130;52.250;5.048;2023-07-13T18:55:00;1017.9;;;21.9;58.5
72226;BME280;60130;52.250;5.048;2023-07-13T19:00:00;1017.9;;;21.2;60.2
72226;BME280;60130;52.250;5.048;2023-07-13T19:05:00;1017.9;;;21.1;62.4
72226;BME280;60130;52.250;5.048;2023-07-13T19:10:00;1018.0;;;21.0;62.0
72226;BME280;60130;52.250;5.048;2023-07-13T19:15:00;1018.0;;;20.9;61.9
72226;BME280;60130;52.250;5.048;2023-07-13T19:20:00;1018.0;;;20.7;62.5
72226;BME280;60130;52.250;5.048;2023-07-13T19:25:00;1018.1;;;20.4;63.2
72226;BME280;60130;52.250;5.048;2023-07-13T19:30:00;1018.1;;;20.2;64.0
72226;BME280;60130;52.250;5.048;2023-07-13T19:35:00;1018.1;;;19.9;65.0
72226;BME280;60130;52.250;5.048;2023-07-13T19:40:00;1018.2;;;19.8;65.7
72226;BME280;60130;52.250;5.048;2023-07-13T19:45:00;1018.1;;;19.7;66.0
72226;BME280;60130;52.250;5.048;2023-07-13T19:50:00;1018.1;;;19.6;66.6
72226;BME280;60130;52.250;5.048;2023-07-13T19:55:00;1018.1;;;19.6;66.8
72226;BME280;60130;52.250;5.048;2023-07-13T20:00:00;1018.2;;;19.5;67.1
72226;BME280;60130;52.250;5.048;2023-07-13T20:05:00;1018.2;;;19.4;67.5
72226;BME280;60130;52.250;5.048;2023-07-13T20:10:00;1018.2;;;19.3;68.5
72226;BME280;60130;52.250;5.048;2023-07-13T20:15:00;1018.2;;;19.2;68.8
72226;BME280;60130;52.250;5.048;2023-07-13T20:20:03;1018.2;;;19.2;68.8
72226;BME280;60130;52.250;5.048;2023-07-13T20:25:00;1018.3;;;19.1;68.9
72226;BME280;60130;52.250;5.048;2023-07-13T20:30:00;1018.2;;;18.9;69.1
72226;BME280;60130;52.250;5.048;2023-07-13T20:35:00;1018.3;;;18.8;69.9
72226;BME280;60130;52.250;5.048;2023-07-13T20:40:01;1018.2;;;18.8;70.4
72226;BME280;60130;52.250;5.048;2023-07-13T20:45:00;1018.2;;;18.6;70.9
72226;BME280;60130;52.250;5.048;2023-07-13T20:50:00;1018.2;;;18.6;70.7
72226;BME280;60130;52.250;5.048;2023-07-13T20:55:04;1018.2;;;18.5;71.1
72226;BME280;60130;52.250;5.048;2023-07-13T21:00:00;1018.2;;;18.5;71.1
72226;BME280;60130;52.250;5.048;2023-07-13T21:05:12;1018.2;;;18.3;72.8
72226;BME280;60130;52.250;5.048;2023-07-13T21:10:00;1018.3;;;18.2;72.8
72226;BME280;60130;52.250;5.048;2023-07-13T21:15:02;1018.2;;;18.2;72.8
72226;BME280;60130;52.250;5.048;2023-07-13T21:20:18;1018.2;;;18.2;72.5
72226;BME280;60130;52.250;5.048;2023-07-13T21:25:01;1018.3;;;18.2;71.9
72226;BME280;60130;52.250;5.048;2023-07-13T21:30:00;1018.3;;;18.1;72.2
72226;BME280;60130;52.250;5.048;2023-07-13T21:35:04;1018.3;;;18.0;72.2
72226;BME280;60130;52.250;5.048;2023-07-13T21:40:00;1018.3;;;18.1;71.5
72226;BME280;60130;52.250;5.048;2023-07-13T21:45:00;1018.3;;;18.0;72.3
72226;BME280;60130;52.250;5.048;2023-07-13T21:50:00;1018.4;;;17.9;72.0
72226;BME280;60130;52.250;5.048;2023-07-13T21:55:00;1018.5;;;17.9;72.2
72226;BME280;60130;52.250;5.048;2023-07-13T22:00:00;1018.4;;;17.7;72.8
72226;BME280;60130;52.250;5.048;2023-07-13T22:05:00;1018.3;;;17.6;73.0
72226;BME280;60130;52.250;5.048;2023-07-13T22:10:00;1018.3;;;17.6;72.9
72226;BME280;60130;52.250;5.048;2023-07-13T22:15:00;1018.2;;;17.6;73.0
72226;BME280;60130;52.250;5.048;2023-07-13T22:20:01;1018.3;;;17.6;73.1
72226;BME280;60130;52.250;5.048;2023-07-13T22:25:00;1018.2;;;17.5;73.2
72226;BME280;60130;52.250;5.048;2023-07-13T22:30:00;1018.2;;;17.5;73.2
72226;BME280;60130;52.250;5.048;2023-07-13T22:35:00;1018.2;;;17.4;73.8
72226;BME280;60130;52.250;5.048;2023-07-13T22:40:00;1018.1;;;17.3;73.8
72226;BME280;60130;52.250;5.048;2023-07-13T22:45:00;1018.1;;;17.3;73.5
72226;BME280;60130;52.250;5.048;2023-07-13T22:50:00;1018.1;;;17.3;73.6
72226;BME280;60130;52.250;5.048;2023-07-13T22:55:09;1018.1;;;17.3;73.6
72226;BME280;60130;52.250;5.048;2023-07-13T23:00:00;1018.2;;;17.1;74.2
72226;BME280;60130;52.250;5.048;2023-07-13T23:05:00;1018.2;;;17.1;74.8
72226;BME280;60130;52.250;5.048;2023-07-13T23:10:00;1018.2;;;17.1;74.4
72226;BME280;60130;52.250;5.048;2023-07-13T23:15:00;1018.2;;;17.1;74.2
72226;BME280;60130;52.250;5.048;2023-07-13T23:20:00;1018.2;;;17.0;74.6
72226;BME280;60130;52.250;5.048;2023-07-13T23:25:00;1018.2;;;17.1;74.6
72226;BME280;60130;52.250;5.048;2023-07-13T23:30:00;1018.2;;;17.1;74.5
72226;BME280;60130;52.250;5.048;2023-07-13T23:35:10;1018.1;;;17.0;75.3
72226;BME280;60130;52.250;5.048;2023-07-13T23:40:00;1018.0;;;17.0;75.4
72226;BME280;60130;52.250;5.048;2023-07-13T23:45:00;1018.0;;;17.0;75.5
72226;BME280;60130;52.250;5.048;2023-07-13T23:50:01;1018.0;;;16.9;75.7
72226;BME280;60130;52.250;5.048;2023-07-13T23:55:00;1018.0;;;16.7;76.1
